Skagen, Denmark
Current Conditions -  °F | °C
As of 3:20 PM on Sunday 21 Dec 2014 (Local Time) from ESGP Reporting Station
Drizzle Drizzle  
Wind Chill:   Ceiling: 1900
Heat Index:   Visibility: 5mi
Dew Point:   Wind: 7mph
Humidity: 87%   Direction: 200°SSW
Pressure: 29.74"   Gusts: NA
Location:  57.72°N, 10.58°E
Report Text: ESGP 211420Z 20006KT 8000 DZ BKN019 OVC025 04/02 Q1007 RERAR01/29//95
Loading
Personal Weather Stations






























Interactive Weather Map New forecast layout! Learn more

10-Day Weather Forecast

Advertisements
Track Severe Weather on mobile